LFBP/PUF METAR and TAF weather

Enter ICAO airport designator
Station Type Date Time Source
LFBP METAR 2019/06/27 08:30 UTC NOAA

LFBP 270830Z AUTO 13003KT 060V190 CAVOK 25/20 Q1019 NOSIG


Station Type Date Time Source
LFBP Decoded METAR 2019/06/27 08:30 UTC NOAA

Pau, France (LFBP) 43-23N 000-25W 185M
Jun 27, 2019 - 04:30 AM EDT / 2019.06.27 0830 UTC
Wind: from the SE (130 degrees) at 3 MPH (3 KT) (direction variable):0
Visibility: greater than 7 mile(s):0
Temperature: 77 F (25 C)
Dew Point: 68 F (20 C)
Relative Humidity: 73%
Pressure (altimeter): 30.09 in. Hg (1019 hPa)
ob: LFBP 270830Z AUTO 13003KT 060V190 CAVOK 25/20 Q1019 NOSIG
cycle: 8

Station Type Date Time Source
LFBP TAF 2019/06/27 06:57 UTC NOAA

TAF TAF LFBP 270500Z 2706/2806 VRB02KT 4500 BR OVC007
FM270830 08005KT CAVOK
FM271200 09010KT CAVOK
BECMG 2722/2724 29014KT
TEMPO 2800/2806 3000 BR BKN006

Example: see airport list